Terminal Aerodrome Forecast
Issued by NWS

Home | Current Version | Previous Version | Text Only | Print | Product List | Glossary On
Versions: 1 2 3 4 5 6 7 8 9 10 11 12
000
FTAK31 PAFA 181727
TAFAFA
TAF
PAFA 181727Z 1818/1924 05005KT P6SM FEW050 SCT100 BKN200
     FM182200 09003KT P6SM VCSH SCT050 BKN100
     FM190400 36004KT P6SM SCT100=

USA.gov is the U.S. government's official web portal to all federal, state and local government web resources and services.